createdAt,value
2023-04-18T00:00:55.198Z,31.66
2023-04-18T00:01:55.337Z,31.73
2023-04-18T00:02:55.509Z,31.57
2023-04-18T00:03:55.316Z,31.77
2023-04-18T00:04:55.288Z,31.57
2023-04-18T00:05:55.213Z,31.49
2023-04-18T00:06:55.236Z,31.45
2023-04-18T00:07:55.255Z,31.71
2023-04-18T00:08:55.305Z,31.74
2023-04-18T00:09:55.252Z,31.63
2023-04-18T00:10:55.253Z,31.49
2023-04-18T00:11:55.254Z,31.49
2023-04-18T00:12:55.264Z,31.42
2023-04-18T00:13:55.262Z,31.51
2023-04-18T00:14:55.316Z,31.43
2023-04-18T00:15:55.318Z,31.34
2023-04-18T00:16:55.337Z,31.32
2023-04-18T00:17:55.339Z,31.26
2023-04-18T00:18:55.327Z,31.33
2023-04-18T00:19:55.345Z,31.24
2023-04-18T00:20:55.313Z,31.22
2023-04-18T00:21:55.368Z,31.19
2023-04-18T00:22:55.360Z,31.26
2023-04-18T00:23:55.388Z,31.21
2023-04-18T00:24:55.401Z,31.31
2023-04-18T00:25:55.353Z,31.11
2023-04-18T00:26:55.373Z,31.11
2023-04-18T00:27:55.399Z,31.19
2023-04-18T00:28:55.432Z,31.06
2023-04-18T00:29:55.397Z,30.99
2023-04-18T00:30:55.488Z,31.02
2023-04-18T00:31:55.418Z,31.16
2023-04-18T00:32:55.503Z,31.02
2023-04-18T00:33:55.448Z,31.02
2023-04-18T00:34:55.467Z,31.05
2023-04-18T00:35:55.484Z,31.19
2023-04-18T00:36:55.504Z,30.97
2023-04-18T00:37:55.503Z,31.02
2023-04-18T00:38:55.469Z,30.96
2023-04-18T00:39:55.517Z,30.99
2023-04-18T00:40:55.525Z,31.04
2023-04-18T00:41:55.548Z,31.06
2023-04-18T00:42:55.580Z,30.99
2023-04-18T00:43:55.568Z,31.00
2023-04-18T00:44:55.597Z,30.83
2023-04-18T00:45:55.642Z,30.87
2023-04-18T00:46:55.615Z,30.89
2023-04-18T00:47:55.694Z,30.94
2023-04-18T00:48:55.658Z,30.87
2023-04-18T00:49:55.635Z,30.83
2023-04-18T00:50:55.631Z,30.90
2023-04-18T00:51:55.682Z,30.99
2023-04-18T00:52:55.690Z,30.97
2023-04-18T00:53:55.712Z,30.93
2023-04-18T00:54:55.744Z,30.91
2023-04-18T00:55:55.736Z,30.90
2023-04-18T00:56:55.746Z,30.86
2023-04-18T00:57:55.787Z,30.86
2023-04-18T00:58:55.783Z,30.88
2023-04-18T00:59:55.839Z,30.79
2023-04-18T01:00:55.820Z,30.85
2023-04-18T01:01:55.960Z,30.80
2023-04-18T01:02:56.036Z,30.83
2023-04-18T01:03:55.959Z,30.85
2023-04-18T01:04:55.891Z,30.87
2023-04-18T01:05:55.866Z,30.84
2023-04-18T01:06:55.921Z,30.84
2023-04-18T01:07:55.925Z,30.86
2023-04-18T01:08:55.930Z,30.89
2023-04-18T01:09:55.947Z,30.93
2023-04-18T01:10:55.974Z,30.72
2023-04-18T01:11:55.956Z,30.84
2023-04-18T01:12:56.008Z,30.81
2023-04-18T01:13:56.016Z,30.76
2023-04-18T01:14:56.056Z,30.70
2023-04-18T01:15:56.090Z,30.80
2023-04-18T01:16:56.046Z,30.81
2023-04-18T01:17:56.049Z,30.83
2023-04-18T01:18:56.082Z,30.69
2023-04-18T01:19:56.067Z,30.69
2023-04-18T01:20:56.078Z,30.72
2023-04-18T01:21:56.149Z,30.80
2023-04-18T01:22:56.146Z,30.66
2023-04-18T01:23:56.153Z,30.67
2023-04-18T01:24:56.179Z,30.67
2023-04-18T01:25:56.595Z,30.64
2023-04-18T01:26:56.209Z,30.64
2023-04-18T01:27:56.203Z,30.73
2023-04-18T01:28:56.229Z,30.70
2023-04-18T01:29:56.245Z,30.70
2023-04-18T01:30:56.310Z,30.73
2023-04-18T01:31:56.262Z,30.71
2023-04-18T01:32:56.355Z,30.66
2023-04-18T01:33:56.308Z,30.66
2023-04-18T01:34:56.346Z,30.58
2023-04-18T01:35:56.364Z,30.60
2023-04-18T01:36:56.367Z,30.60
2023-04-18T01:37:56.402Z,30.64
2023-04-18T01:38:56.401Z,30.49
2023-04-18T01:39:56.419Z,30.63
2023-04-18T01:40:56.425Z,30.50
2023-04-18T01:41:56.474Z,30.46
2023-04-18T01:42:56.511Z,30.50
2023-04-18T01:43:56.519Z,30.60
2023-04-18T01:44:56.541Z,30.57
2023-04-18T01:45:56.563Z,30.48
2023-04-18T01:46:56.705Z,30.49
2023-04-18T01:47:56.631Z,30.57
2023-04-18T01:48:56.612Z,30.60
2023-04-18T01:49:56.661Z,30.51
2023-04-18T01:50:56.672Z,30.48
2023-04-18T01:51:56.642Z,30.54
2023-04-18T01:52:56.671Z,30.53
2023-04-18T01:53:56.687Z,30.54
2023-04-18T01:54:56.711Z,30.54
2023-04-18T01:55:56.761Z,30.49
2023-04-18T01:56:56.786Z,30.50
2023-04-18T01:57:56.773Z,30.46
2023-04-18T01:58:56.784Z,30.46
2023-04-18T01:59:56.830Z,30.49
2023-04-18T02:00:56.853Z,30.43
2023-04-18T02:01:56.952Z,30.39
2023-04-18T02:02:57.069Z,30.42
2023-04-18T02:03:57.029Z,30.36
2023-04-18T02:04:56.933Z,30.31
2023-04-18T02:05:56.941Z,30.37
2023-04-18T02:06:56.987Z,30.33
2023-04-18T02:07:57.008Z,30.31
2023-04-18T02:08:57.014Z,30.33
2023-04-18T02:09:57.055Z,30.30
2023-04-18T02:10:57.089Z,30.35
2023-04-18T02:11:57.105Z,30.42
2023-04-18T02:12:57.129Z,30.37
2023-04-18T02:13:57.122Z,30.31
2023-04-18T02:14:57.177Z,30.33
2023-04-18T02:15:57.209Z,30.26
2023-04-18T02:16:57.204Z,30.27
2023-04-18T02:17:57.265Z,30.20
2023-04-18T02:18:57.265Z,30.24
2023-04-18T02:19:57.266Z,30.27
2023-04-18T02:20:57.314Z,30.19
2023-04-18T02:21:57.302Z,30.20
2023-04-18T02:22:57.376Z,30.07
2023-04-18T02:23:57.368Z,30.24
2023-04-18T02:24:57.384Z,30.23
2023-04-18T02:25:57.412Z,30.18
2023-04-18T02:26:57.439Z,30.20
2023-04-18T02:27:57.467Z,30.19
2023-04-18T02:28:57.501Z,30.24
2023-04-18T02:29:57.551Z,30.09
2023-04-18T02:30:57.552Z,30.12
2023-04-18T02:31:57.607Z,30.16
2023-04-18T02:32:57.586Z,30.14
2023-04-18T02:33:57.635Z,30.15
2023-04-18T02:34:57.644Z,30.12
2023-04-18T02:35:57.672Z,30.02
2023-04-18T02:36:57.690Z,30.08
2023-04-18T02:37:57.733Z,30.10
2023-04-18T02:38:57.758Z,30.06
2023-04-18T02:39:57.762Z,30.17
2023-04-18T02:40:57.768Z,30.19
2023-04-18T02:41:57.833Z,30.06
2023-04-18T02:42:57.811Z,30.08
2023-04-18T02:43:57.846Z,30.04
2023-04-18T02:44:57.898Z,29.97
2023-04-18T02:45:57.961Z,29.97
2023-04-18T02:46:57.932Z,29.99
2023-04-18T02:47:57.988Z,30.02
2023-04-18T02:48:57.989Z,29.96
2023-04-18T02:49:58.015Z,29.99
2023-04-18T02:50:57.997Z,29.94
2023-04-18T02:51:58.065Z,29.94
2023-04-18T02:52:58.101Z,29.89
2023-04-18T02:53:58.121Z,29.96
2023-04-18T02:54:58.080Z,29.89
2023-04-18T02:55:58.149Z,29.82
2023-04-18T02:56:58.145Z,29.87
2023-04-18T02:57:58.169Z,29.94
2023-04-18T02:58:58.225Z,29.87
2023-04-18T02:59:58.232Z,29.93
2023-04-18T03:00:58.302Z,29.91
2023-04-18T03:01:58.311Z,29.93
2023-04-18T03:02:58.428Z,29.85
2023-04-18T03:03:58.352Z,29.84
2023-04-18T03:04:58.436Z,29.86
2023-04-18T03:05:58.384Z,29.76
2023-04-18T03:06:58.430Z,29.89
2023-04-18T03:07:58.469Z,29.74
2023-04-18T03:08:58.487Z,29.86
2023-04-18T03:09:58.522Z,29.84
2023-04-18T03:10:58.576Z,29.82
2023-04-18T03:11:58.554Z,29.73
2023-04-18T03:12:58.602Z,29.79
2023-04-18T03:13:58.618Z,29.79
2023-04-18T03:14:58.655Z,29.78
2023-04-18T03:15:58.738Z,29.79
2023-04-18T03:16:58.719Z,29.71
2023-04-18T03:17:58.714Z,29.71
2023-04-18T03:18:58.791Z,29.71
2023-04-18T03:19:58.818Z,29.71
2023-04-18T03:20:58.779Z,29.66
2023-04-18T03:21:58.844Z,29.63
2023-04-18T03:22:58.888Z,29.67
2023-04-18T03:23:58.891Z,29.69
2023-04-18T03:24:58.973Z,29.67
2023-04-18T03:25:58.995Z,29.57
2023-04-18T03:26:59.000Z,29.63
2023-04-18T03:27:59.029Z,29.63
2023-04-18T03:28:59.065Z,29.66
2023-04-18T03:29:59.110Z,29.67
2023-04-18T03:30:59.138Z,29.67
2023-04-18T03:31:59.165Z,29.57
2023-04-18T03:32:59.239Z,29.60
2023-04-18T03:33:59.222Z,29.57
2023-04-18T03:34:59.222Z,29.60
2023-04-18T03:35:59.263Z,29.57
2023-04-18T03:36:59.297Z,29.60
2023-04-18T03:37:59.297Z,29.51
2023-04-18T03:38:59.333Z,29.55
2023-04-18T03:39:59.342Z,29.53
2023-04-18T03:40:59.388Z,29.53
2023-04-18T03:41:59.423Z,29.59
2023-04-18T03:42:59.468Z,29.53
2023-04-18T03:43:59.470Z,29.50
2023-04-18T03:44:59.511Z,29.59
2023-04-18T03:45:59.573Z,29.47
2023-04-18T03:46:59.577Z,29.48
2023-04-18T03:47:59.669Z,29.54
2023-04-18T03:48:59.612Z,29.53
2023-04-18T03:49:59.649Z,29.57
2023-04-18T03:50:59.676Z,29.53
2023-04-18T03:51:59.717Z,29.47
2023-04-18T03:52:59.744Z,29.46
2023-04-18T03:53:59.801Z,29.49
2023-04-18T03:54:59.806Z,29.49
2023-04-18T03:55:59.812Z,29.49
2023-04-18T03:56:59.814Z,29.47
2023-04-18T03:57:59.867Z,29.42
2023-04-18T03:58:59.927Z,29.40
2023-04-18T03:59:59.926Z,29.43
2023-04-18T04:01:00.003Z,29.39
2023-04-18T04:02:00.195Z,29.34
2023-04-18T04:03:00.221Z,29.43
2023-04-18T04:04:00.274Z,29.39
2023-04-18T04:05:00.181Z,29.40
2023-04-18T04:06:00.133Z,29.42
2023-04-18T04:07:00.178Z,29.40
2023-04-18T04:08:00.162Z,29.37
2023-04-18T04:09:00.204Z,29.43
2023-04-18T04:10:00.267Z,29.43
2023-04-18T04:11:00.282Z,29.40
2023-04-18T04:12:00.318Z,29.39
2023-04-18T04:13:00.333Z,29.37
2023-04-18T04:14:00.356Z,29.30
2023-04-18T04:15:00.473Z,29.34
2023-04-18T04:16:00.487Z,29.36
2023-04-18T04:17:00.421Z,29.28
2023-04-18T04:18:00.531Z,29.28
2023-04-18T04:19:00.506Z,29.20
2023-04-18T04:20:00.600Z,29.30
2023-04-18T04:21:00.594Z,29.21
2023-04-18T04:22:00.621Z,29.33
2023-04-18T04:23:00.653Z,29.28
2023-04-18T04:24:00.680Z,29.20
2023-04-18T04:25:00.745Z,29.09
2023-04-18T04:26:00.745Z,29.17
2023-04-18T04:27:00.819Z,29.19
2023-04-18T04:28:00.825Z,29.21
2023-04-18T04:29:00.876Z,29.12
2023-04-18T04:30:00.895Z,29.21
2023-04-18T04:31:00.945Z,29.10
2023-04-18T04:32:00.980Z,29.14
2023-04-18T04:33:01.051Z,29.07
2023-04-18T04:34:01.048Z,29.10
2023-04-18T04:35:01.090Z,29.12
2023-04-18T04:36:01.116Z,29.10
2023-04-18T04:37:01.136Z,29.13
2023-04-18T04:38:01.200Z,29.06
2023-04-18T04:39:01.259Z,29.07
2023-04-18T04:40:01.279Z,29.05
2023-04-18T04:41:01.262Z,29.10
2023-04-18T04:42:01.334Z,29.12
2023-04-18T04:43:01.337Z,29.07
2023-04-18T04:44:01.391Z,29.07
2023-04-18T04:45:01.543Z,29.05
2023-04-18T04:46:01.539Z,29.02
2023-04-18T04:47:01.489Z,29.06
2023-04-18T04:48:01.626Z,29.05
2023-04-18T04:49:01.607Z,29.02
2023-04-18T04:50:01.626Z,29.02
2023-04-18T04:51:01.643Z,29.02
2023-04-18T04:52:02.142Z,29.34
2023-04-18T04:53:01.790Z,30.60
2023-04-18T04:54:01.806Z,31.64
2023-04-18T04:55:01.839Z,31.95
2023-04-18T04:56:01.898Z,32.76
2023-04-18T04:57:01.857Z,33.64
2023-04-18T04:58:01.858Z,34.45
2023-04-18T04:59:01.865Z,34.89
2023-04-18T05:00:01.874Z,35.51
2023-04-18T05:01:02.728Z,35.85
2023-04-18T05:02:01.961Z,36.11
2023-04-18T05:03:02.223Z,36.35
2023-04-18T05:04:02.069Z,36.55
2023-04-18T05:05:01.965Z,36.63
2023-04-18T05:06:01.988Z,37.07
2023-04-18T05:07:02.053Z,37.36
2023-04-18T05:08:02.139Z,37.49
2023-04-18T05:09:02.186Z,38.29
2023-04-18T05:10:02.247Z,38.55
2023-04-18T05:11:02.360Z,38.50
2023-04-18T05:12:02.373Z,39.03
2023-04-18T05:13:02.405Z,39.33
2023-04-18T05:14:02.475Z,39.54
2023-04-18T05:15:02.565Z,39.92
2023-04-18T05:16:02.600Z,39.88
2023-04-18T05:17:02.745Z,40.03
2023-04-18T05:18:02.796Z,40.27
2023-04-18T05:19:02.781Z,40.35
2023-04-18T05:20:02.881Z,40.31
2023-04-18T05:21:02.896Z,40.36
2023-04-18T05:22:02.976Z,40.37
2023-04-18T05:23:03.006Z,40.77
2023-04-18T05:24:03.102Z,40.80
2023-04-18T05:25:03.150Z,41.31
2023-04-18T05:26:03.205Z,41.45
2023-04-18T05:27:03.266Z,41.46
2023-04-18T05:28:03.301Z,41.78
2023-04-18T05:29:03.373Z,41.64
2023-04-18T05:30:03.437Z,42.05
2023-04-18T05:31:03.565Z,42.07
2023-04-18T05:32:03.453Z,41.67
2023-04-18T05:33:03.528Z,41.71
2023-04-18T05:34:03.619Z,41.67
2023-04-18T05:35:03.515Z,37.70
2023-04-18T05:36:03.557Z,38.38
2023-04-18T05:37:03.596Z,38.39
2023-04-18T05:38:03.627Z,38.81
2023-04-18T05:39:03.692Z,38.74
2023-04-18T05:40:03.713Z,38.48
2023-04-18T05:41:03.692Z,38.53
2023-04-18T05:42:03.828Z,38.41
2023-04-18T05:43:03.689Z,37.54
2023-04-18T05:44:05.655Z,38.26
2023-04-18T05:45:04.230Z,38.30
2023-04-18T05:46:03.754Z,39.23
2023-04-18T05:47:03.765Z,39.03
2023-04-18T05:48:03.818Z,38.67
2023-04-18T05:49:03.752Z,39.53
2023-04-18T05:50:03.781Z,38.62
2023-04-18T05:51:03.777Z,38.78
2023-04-18T05:52:03.833Z,38.36
2023-04-18T05:53:03.838Z,37.47
2023-04-18T05:54:03.837Z,36.72
2023-04-18T05:55:03.862Z,37.97
2023-04-18T05:56:03.857Z,38.26
2023-04-18T05:57:04.791Z,40.11
2023-04-18T05:58:03.833Z,39.13
2023-04-18T05:59:03.880Z,39.60
2023-04-18T06:00:03.939Z,40.31
2023-04-18T06:01:03.983Z,40.48
2023-04-18T06:02:04.067Z,41.31
2023-04-18T06:03:04.204Z,41.73
2023-04-18T06:04:04.249Z,41.65
2023-04-18T06:05:04.467Z,42.41
2023-04-18T06:06:04.250Z,42.26
2023-04-18T06:07:04.328Z,42.68
2023-04-18T06:08:04.402Z,42.91
2023-04-18T06:09:04.458Z,42.81
2023-04-18T06:10:04.541Z,42.81
2023-04-18T06:11:04.585Z,43.35
2023-04-18T06:12:04.709Z,43.47
2023-04-18T06:13:04.679Z,43.46
2023-04-18T06:14:04.760Z,43.64
2023-04-18T06:15:04.793Z,43.58
2023-04-18T06:16:05.019Z,43.89
2023-04-18T06:17:04.960Z,44.42
2023-04-18T06:18:05.249Z,43.91
2023-04-18T06:19:05.132Z,44.09
2023-04-18T06:20:05.145Z,44.19
2023-04-18T06:21:05.159Z,44.51
2023-04-18T06:22:05.202Z,44.40
2023-04-18T06:23:05.375Z,44.30
2023-04-18T06:24:05.351Z,44.14
2023-04-18T06:25:05.421Z,44.06
2023-04-18T06:26:05.467Z,44.08
2023-04-18T06:27:05.499Z,44.39
2023-04-18T06:28:05.564Z,44.08
2023-04-18T06:29:05.608Z,44.01
2023-04-18T06:30:05.682Z,44.26
2023-04-18T06:31:05.766Z,44.11
2023-04-18T06:32:05.784Z,44.17
2023-04-18T06:33:05.915Z,44.52
2023-04-18T06:34:05.870Z,44.68
2023-04-18T06:35:05.977Z,45.30
2023-04-18T06:36:06.012Z,45.53
2023-04-18T06:37:06.061Z,45.32
2023-04-18T06:38:06.111Z,45.28
2023-04-18T06:39:06.259Z,45.16
2023-04-18T06:40:06.235Z,45.45
2023-04-18T06:41:06.303Z,45.30
2023-04-18T06:42:06.337Z,45.39
2023-04-18T06:43:06.379Z,45.26
2023-04-18T06:44:06.487Z,45.46
2023-04-18T06:45:06.854Z,44.51
2023-04-18T06:46:06.678Z,45.16
2023-04-18T06:47:06.633Z,44.35
2023-04-18T06:48:06.689Z,45.88
2023-04-18T06:49:06.732Z,46.39
2023-04-18T06:50:06.830Z,45.17
2023-04-18T06:51:06.830Z,46.40
2023-04-18T06:52:06.947Z,46.29
2023-04-18T06:53:07.010Z,46.60
2023-04-18T06:54:07.037Z,46.05
2023-04-18T06:55:07.097Z,46.15
2023-04-18T06:56:07.177Z,45.99
2023-04-18T06:57:07.229Z,46.09
2023-04-18T06:58:07.249Z,46.40
2023-04-18T06:59:07.329Z,46.50
2023-04-18T07:00:07.359Z,46.65
2023-04-18T07:01:07.437Z,46.40
2023-04-18T07:02:07.481Z,47.00
2023-04-18T07:03:09.515Z,46.76
2023-04-18T07:04:07.515Z,46.73
2023-04-18T07:05:07.856Z,47.06
2023-04-18T07:06:07.474Z,47.02
2023-04-18T07:07:07.474Z,46.98
2023-04-18T07:08:07.483Z,46.93
2023-04-18T07:09:07.456Z,46.93
2023-04-18T07:10:07.482Z,46.54
2023-04-18T07:11:07.584Z,46.88
2023-04-18T07:12:07.477Z,46.55
2023-04-18T07:13:07.429Z,46.76
2023-04-18T07:14:07.485Z,46.91
2023-04-18T07:15:07.421Z,46.97
2023-04-18T07:16:07.413Z,46.58
2023-04-18T07:17:07.614Z,46.18
2023-04-18T07:18:07.474Z,45.99
2023-04-18T07:19:07.440Z,46.15
2023-04-18T07:20:07.396Z,46.07
2023-04-18T07:21:07.719Z,46.03
2023-04-18T07:22:07.406Z,46.36
2023-04-18T07:23:07.439Z,46.32
2023-04-18T07:24:07.356Z,46.49
2023-04-18T07:25:07.412Z,46.36
2023-04-18T07:26:07.383Z,46.41
2023-04-18T07:27:07.627Z,46.33
2023-04-18T07:28:07.405Z,45.49
2023-04-18T07:29:07.366Z,45.81
2023-04-18T07:30:07.391Z,45.74
2023-04-18T07:31:07.427Z,45.97
2023-04-18T07:32:08.468Z,46.40
2023-04-18T07:33:07.390Z,46.85
2023-04-18T07:34:07.411Z,46.81
2023-04-18T07:35:07.392Z,46.67
2023-04-18T07:36:07.350Z,46.47
2023-04-18T07:37:07.388Z,46.31
2023-04-18T07:38:07.447Z,46.19
2023-04-18T07:39:07.455Z,45.87
2023-04-18T07:40:07.514Z,46.22
2023-04-18T07:41:07.583Z,45.54
2023-04-18T07:42:08.232Z,45.55
2023-04-18T07:43:07.781Z,42.92
2023-04-18T07:44:07.789Z,42.73
2023-04-18T07:45:07.787Z,41.26
2023-04-18T07:46:08.286Z,42.87
2023-04-18T07:47:07.951Z,42.31
2023-04-18T07:48:08.013Z,43.08
2023-04-18T07:49:08.029Z,43.38
2023-04-18T07:50:08.065Z,43.48
2023-04-18T07:51:08.152Z,43.74
2023-04-18T07:52:08.139Z,44.22
2023-04-18T07:53:08.201Z,44.77
2023-04-18T07:54:08.232Z,44.74
2023-04-18T07:55:08.271Z,44.83
2023-04-18T07:56:08.348Z,44.93
2023-04-18T07:57:08.325Z,44.94
2023-04-18T07:58:08.358Z,45.10
2023-04-18T07:59:08.612Z,45.25
2023-04-18T08:00:08.406Z,43.95
2023-04-18T08:01:08.434Z,43.66
2023-04-18T08:02:08.530Z,43.85
2023-04-18T08:03:08.750Z,44.23
2023-04-18T08:04:08.695Z,43.96
2023-04-18T08:05:08.714Z,44.75
2023-04-18T08:06:08.658Z,44.59
2023-04-18T08:07:08.666Z,44.71
2023-04-18T08:08:08.699Z,43.82
2023-04-18T08:09:08.759Z,44.02
2023-04-18T08:10:08.787Z,43.60
2023-04-18T08:11:08.857Z,44.21
2023-04-18T08:12:08.888Z,44.09
2023-04-18T08:13:08.908Z,43.39
2023-04-18T08:14:08.950Z,43.52
2023-04-18T08:15:08.992Z,43.90
2023-04-18T08:16:09.146Z,44.58
2023-04-18T08:17:09.069Z,44.84
2023-04-18T08:18:09.105Z,45.00
2023-04-18T08:19:09.149Z,44.68
2023-04-18T08:20:09.256Z,44.77
2023-04-18T08:21:09.266Z,44.63
2023-04-18T08:22:09.217Z,44.48
2023-04-18T08:23:12.198Z,44.33
2023-04-18T08:24:09.257Z,43.32
2023-04-18T08:25:09.250Z,44.04
2023-04-18T08:26:09.270Z,45.20
2023-04-18T08:27:09.279Z,45.09
2023-04-18T08:28:09.272Z,45.21
2023-04-18T08:29:09.238Z,45.34
2023-04-18T08:30:09.252Z,44.41
2023-04-18T08:31:09.329Z,45.23
2023-04-18T08:32:09.274Z,44.93
2023-04-18T08:33:09.244Z,45.29
2023-04-18T08:34:09.193Z,45.63
2023-04-18T08:35:09.254Z,46.34
2023-04-18T08:36:09.277Z,46.05
2023-04-18T08:37:09.187Z,46.11
2023-04-18T08:38:09.217Z,45.10
2023-04-18T08:39:09.202Z,44.91
2023-04-18T08:40:09.189Z,45.77
2023-04-18T08:41:09.179Z,45.48
2023-04-18T08:42:09.210Z,45.28
2023-04-18T08:43:09.225Z,45.02
2023-04-18T08:44:09.205Z,45.78
2023-04-18T08:45:09.235Z,46.27
2023-04-18T08:46:09.300Z,45.69
2023-04-18T08:47:09.130Z,46.97
2023-04-18T08:48:09.208Z,46.70
2023-04-18T08:49:11.365Z,46.23
2023-04-18T08:50:09.160Z,45.81
2023-04-18T08:51:09.306Z,46.52
2023-04-18T08:52:09.181Z,45.14
2023-04-18T08:53:09.114Z,45.39
2023-04-18T08:54:09.115Z,45.95
2023-04-18T08:55:09.081Z,46.44
2023-04-18T08:56:09.280Z,46.69
2023-04-18T08:57:09.098Z,46.27
2023-04-18T08:58:09.126Z,46.26
2023-04-18T08:59:09.057Z,46.03
2023-04-18T09:00:09.063Z,46.18
2023-04-18T09:01:09.094Z,46.61
2023-04-18T09:02:09.181Z,46.21
2023-04-18T09:03:09.119Z,46.16
2023-04-18T09:04:09.051Z,46.37
2023-04-18T09:05:09.034Z,46.60
2023-04-18T09:06:09.013Z,46.68
2023-04-18T09:07:09.015Z,46.57
2023-04-18T09:08:09.022Z,46.11
2023-04-18T09:09:09.009Z,45.88
2023-04-18T09:10:09.221Z,46.12
2023-04-18T09:11:09.002Z,45.26
2023-04-18T09:12:08.988Z,44.66
2023-04-18T09:13:09.014Z,45.42
2023-04-18T09:14:08.990Z,44.83
2023-04-18T09:15:08.998Z,44.62
2023-04-18T09:16:09.037Z,45.00
2023-04-18T09:17:08.947Z,45.34
2023-04-18T09:18:09.016Z,44.61
2023-04-18T09:19:08.972Z,44.42
2023-04-18T09:20:09.772Z,44.69
2023-04-18T09:21:08.960Z,44.94
2023-04-18T09:22:08.920Z,45.20
2023-04-18T09:23:08.917Z,43.68
2023-04-18T09:24:08.937Z,44.15
2023-04-18T09:25:08.885Z,44.55
2023-04-18T09:26:08.876Z,44.69
2023-04-18T09:27:08.890Z,44.06
2023-04-18T09:28:08.880Z,44.56
2023-04-18T09:29:08.893Z,44.64
2023-04-18T09:30:08.830Z,42.44
2023-04-18T09:31:09.402Z,42.25
2023-04-18T09:32:08.823Z,43.47
2023-04-18T09:33:08.825Z,42.99
2023-04-18T09:34:08.840Z,41.94
2023-04-18T09:35:08.846Z,43.07
2023-04-18T09:36:09.287Z,42.76
2023-04-18T09:37:08.844Z,42.81
2023-04-18T09:38:08.794Z,43.15
2023-04-18T09:39:08.773Z,40.86
2023-04-18T09:40:08.788Z,41.80
2023-04-18T09:41:08.754Z,41.84
2023-04-18T09:42:08.773Z,42.87
2023-04-18T09:43:08.758Z,43.18
2023-04-18T09:44:09.724Z,43.44
2023-04-18T09:45:08.718Z,43.68
2023-04-18T09:46:08.907Z,44.04
2023-04-18T09:47:08.711Z,43.59
2023-04-18T09:48:08.765Z,43.17
2023-04-18T09:49:10.935Z,43.22
2023-04-18T09:50:08.707Z,43.23
2023-04-18T09:51:08.696Z,43.38
2023-04-18T09:52:08.737Z,43.45
2023-04-18T09:53:08.785Z,43.65
2023-04-18T09:54:08.813Z,43.53
2023-04-18T09:55:08.850Z,43.90
2023-04-18T09:56:08.912Z,43.66
2023-04-18T09:57:08.983Z,43.32
2023-04-18T09:58:08.929Z,43.47
2023-04-18T09:59:08.955Z,43.58
2023-04-18T10:00:08.880Z,43.38
2023-04-18T10:01:08.917Z,42.55
2023-04-18T10:02:08.936Z,40.44
2023-04-18T10:03:08.980Z,42.51
2023-04-18T10:04:08.925Z,42.33
2023-04-18T10:05:08.948Z,42.40
2023-04-18T10:06:08.933Z,41.75
2023-04-18T10:07:08.947Z,41.64
2023-04-18T10:08:08.918Z,41.22
2023-04-18T10:09:08.890Z,42.06
2023-04-18T10:10:08.953Z,42.63
2023-04-18T10:11:09.294Z,43.65
2023-04-18T10:12:08.940Z,42.85
2023-04-18T10:13:08.912Z,42.46
2023-04-18T10:14:08.888Z,43.30
2023-04-18T10:15:08.932Z,42.08
2023-04-18T10:16:08.946Z,40.67
2023-04-18T10:17:09.318Z,40.44
2023-04-18T10:18:08.997Z,41.58
2023-04-18T10:19:08.960Z,41.16
2023-04-18T10:20:08.975Z,41.38
2023-04-18T10:21:09.026Z,41.85
2023-04-18T10:22:09.044Z,42.83
2023-04-18T10:23:09.019Z,42.22
2023-04-18T10:24:09.008Z,41.34
2023-04-18T10:25:09.023Z,40.47
2023-04-18T10:26:09.027Z,41.04
2023-04-18T10:27:09.054Z,40.86
2023-04-18T10:28:09.116Z,42.10
2023-04-18T10:29:09.084Z,41.56
2023-04-18T10:30:09.267Z,42.36
2023-04-18T10:31:09.102Z,43.07
2023-04-18T10:32:09.102Z,43.32
2023-04-18T10:33:18.356Z,41.91
2023-04-18T10:34:10.120Z,42.71
2023-04-18T10:35:09.057Z,41.39
2023-04-18T10:36:09.086Z,41.25
2023-04-18T10:37:09.336Z,41.67
2023-04-18T10:38:09.034Z,41.61
2023-04-18T10:39:09.136Z,42.07
2023-04-18T10:40:09.039Z,42.53
2023-04-18T10:41:09.038Z,43.37
2023-04-18T10:42:09.033Z,43.31
2023-04-18T10:43:09.020Z,42.92
2023-04-18T10:44:09.203Z,42.84
2023-04-18T10:45:09.008Z,42.98
2023-04-18T10:46:20.197Z,43.44
2023-04-18T10:47:10.026Z,44.03
2023-04-18T10:48:08.997Z,43.94
2023-04-18T10:49:09.011Z,44.20
2023-04-18T10:50:09.118Z,43.87
2023-04-18T10:51:08.955Z,43.62
2023-04-18T10:52:08.938Z,43.97
2023-04-18T10:53:08.954Z,43.34
2023-04-18T10:54:08.948Z,42.88
2023-04-18T10:55:08.913Z,42.68
2023-04-18T10:56:08.953Z,42.32
2023-04-18T10:57:09.046Z,41.90
2023-04-18T10:58:09.068Z,41.65
2023-04-18T10:59:09.046Z,41.75
2023-04-18T11:00:09.118Z,41.82
2023-04-18T11:01:09.145Z,42.62
2023-04-18T11:02:09.235Z,42.92
2023-04-18T11:03:09.354Z,42.38
2023-04-18T11:04:09.332Z,42.12
2023-04-18T11:05:09.310Z,42.09
2023-04-18T11:06:09.329Z,41.83
2023-04-18T11:07:09.391Z,41.53
2023-04-18T11:08:09.423Z,41.15
2023-04-18T11:09:09.468Z,40.97
2023-04-18T11:10:09.526Z,40.93
2023-04-18T11:11:09.615Z,40.85
2023-04-18T11:12:09.671Z,40.64
2023-04-18T11:13:09.712Z,40.18
2023-04-18T11:14:09.740Z,40.27
2023-04-18T11:15:09.804Z,40.34
2023-04-18T11:16:09.842Z,40.42
2023-04-18T11:17:09.900Z,40.55
2023-04-18T11:18:09.963Z,40.70
2023-04-18T11:19:09.948Z,40.73
2023-04-18T11:20:09.978Z,40.75
2023-04-18T11:21:10.038Z,40.91
2023-04-18T11:22:10.338Z,40.88
2023-04-18T11:23:10.097Z,40.98
2023-04-18T11:24:10.108Z,40.93
2023-04-18T11:25:10.149Z,41.02
2023-04-18T11:26:10.213Z,40.95
2023-04-18T11:27:10.416Z,41.12
2023-04-18T11:28:10.352Z,40.96
2023-04-18T11:29:10.447Z,40.49
2023-04-18T11:30:10.435Z,40.60
2023-04-18T11:31:10.415Z,41.04
2023-04-18T11:32:10.895Z,40.58
2023-04-18T11:33:10.484Z,40.98
2023-04-18T11:34:10.475Z,39.84
2023-04-18T11:35:10.519Z,40.24
2023-04-18T11:36:10.552Z,39.45
2023-04-18T11:37:10.855Z,40.71
2023-04-18T11:38:10.664Z,41.03
2023-04-18T11:39:10.697Z,41.15
2023-04-18T11:40:10.733Z,41.34
2023-04-18T11:41:10.824Z,40.89
2023-04-18T11:42:10.875Z,41.44
2023-04-18T11:43:10.965Z,42.03
2023-04-18T11:44:10.970Z,42.38
2023-04-18T11:45:11.013Z,42.79
2023-04-18T11:46:11.115Z,42.88
2023-04-18T11:47:11.139Z,42.61
2023-04-18T11:48:11.186Z,42.67
2023-04-18T11:49:11.266Z,42.81
2023-04-18T11:50:11.306Z,42.82
2023-04-18T11:51:11.321Z,42.95
2023-04-18T11:52:11.383Z,43.02
2023-04-18T11:53:11.455Z,42.80
2023-04-18T11:54:11.641Z,43.09
2023-04-18T11:55:11.521Z,42.69
2023-04-18T11:56:11.609Z,43.58
2023-04-18T11:57:11.880Z,43.39
2023-04-18T11:58:11.702Z,43.41
2023-04-18T11:59:11.863Z,43.06
2023-04-18T12:00:11.870Z,42.79
2023-04-18T12:01:11.891Z,43.10
2023-04-18T12:02:16.831Z,42.85
2023-04-18T12:03:14.121Z,43.05
2023-04-18T12:04:12.074Z,42.74
2023-04-18T12:05:12.247Z,42.92
2023-04-18T12:06:12.014Z,42.87
2023-04-18T12:07:12.114Z,43.05
2023-04-18T12:08:12.159Z,43.27
2023-04-18T12:09:12.187Z,43.64
2023-04-18T12:10:12.217Z,43.77
2023-04-18T12:11:12.251Z,44.10
2023-04-18T12:12:12.322Z,43.75
2023-04-18T12:13:12.416Z,44.28
2023-04-18T12:14:12.603Z,44.23
2023-04-18T12:15:12.481Z,44.48
2023-04-18T12:16:12.585Z,44.18
2023-04-18T12:17:12.854Z,43.81
2023-04-18T12:18:12.587Z,44.24
2023-04-18T12:19:12.650Z,43.95
2023-04-18T12:20:12.680Z,44.10
2023-04-18T12:21:12.730Z,43.71
2023-04-18T12:22:12.843Z,43.55
2023-04-18T12:23:12.861Z,42.98
2023-04-18T12:24:13.149Z,42.71
2023-04-18T12:25:12.928Z,43.26
2023-04-18T12:26:13.018Z,43.83
2023-04-18T12:27:13.092Z,43.18
2023-04-18T12:28:13.104Z,42.67
2023-04-18T12:29:13.500Z,42.64
2023-04-18T12:30:13.323Z,43.13
2023-04-18T12:31:13.425Z,42.99
2023-04-18T12:32:13.344Z,43.52
2023-04-18T12:33:13.385Z,43.61
2023-04-18T12:34:13.648Z,43.83
2023-04-18T12:35:13.484Z,43.69
2023-04-18T12:36:13.561Z,43.18
2023-04-18T12:37:13.598Z,42.93
2023-04-18T12:38:13.647Z,42.64
2023-04-18T12:39:13.719Z,42.68
2023-04-18T12:40:13.836Z,42.77
2023-04-18T12:41:13.782Z,43.44
2023-04-18T12:42:13.850Z,43.75
2023-04-18T12:43:13.878Z,43.64
2023-04-18T12:44:14.082Z,44.27
2023-04-18T12:45:13.976Z,44.03
2023-04-18T12:46:14.041Z,44.45
2023-04-18T12:47:14.142Z,44.38
2023-04-18T12:48:14.157Z,44.09
2023-04-18T12:49:14.208Z,43.87
2023-04-18T12:50:14.264Z,44.10
2023-04-18T12:51:14.303Z,44.04
2023-04-18T12:52:14.330Z,43.86
2023-04-18T12:53:14.388Z,43.98